首页
METAR-TAF:

METAR-TAF

机场 :

羅塔國際機場

羅塔島, 马里亚纳群岛, 美国

纬度: 14-11N, 经度: 145-15E, 海拔: 185米

当前天气观测

该预报发布于53分钟前的22:50 UTC
风速12节,风向
温度 28°C
湿度 89%
气压 1012 hPa
能見度: 11.3公里
多云层高于1400英尺
多云层高于11000英尺
小雨, 轻雾,

METAR: PGRO 152250Z 08012KT 7SM -RA BR BKN014 BKN110 28/26 A2988

时间: 09:43 (23:43 UTC)

预报

该预报发布于19分钟前的23:24 UTC
预报有效从16日的 00点(UTC)到 16日的 24点(UTC)
风速17节,风向
能見度: 10公里
散云层高于1300英尺
散云层高于4000英尺
附近有阵雨
短暂存在
从 16日的 00点(UTC)到 16日的 02点(UTC)
能見度: 8.0公里
多云层高于1400英尺
多云层高于4000英尺
小阵雨,

TAF: PGRO 152324Z 1600/1624 09017KT P6SM VCSH SCT013 SCT040 TEMPO 1600/1602 5SM -SHRA BKN014 BKN040

超过4000个机场的气象观测和天气预报(METAR&TAF报告)。

可查询的气象台以黄色和红色小点在地图上表示。

将鼠标移到小点上方,可查看气象台名称。

然后点击查看天气观测和预报。

如需切换地图:点击带黑十字的绿色按钮放大地图;点击带横线的绿色按钮缩小地图;或者点击绿色箭头查看邻近地区的地图。


METAR-TAF: